sensor_id;sensor_type;location;lat;lon;timestamp;pressure;altitude;pressure_sealevel;temperature;humidity
55685;BME280;41883;49.544;8.646;2023-02-20T00:01:13;101663.09;;;8.36;nan
55685;BME280;41883;49.544;8.646;2023-02-20T00:03:38;101664.91;;;8.36;nan
55685;BME280;41883;49.544;8.646;2023-02-20T00:06:03;101657.00;;;8.36;nan
55685;BME280;41883;49.544;8.646;2023-02-20T00:08:28;101663.09;;;8.36;nan
55685;BME280;41883;49.544;8.646;2023-02-20T00:10:54;101656.78;;;8.39;nan
55685;BME280;41883;49.544;8.646;2023-02-20T00:13:19;101653.22;;;8.40;nan
55685;BME280;41883;49.544;8.646;2023-02-20T00:15:44;101654.06;;;8.40;nan
55685;BME280;41883;49.544;8.646;2023-02-20T00:18:09;101661.66;;;8.45;nan
55685;BME280;41883;49.544;8.646;2023-02-20T00:20:35;101660.59;;;8.47;nan
55685;BME280;41883;49.544;8.646;2023-02-20T00:23:01;101655.94;;;8.51;nan
55685;BME280;41883;49.544;8.646;2023-02-20T00:25:26;101645.41;;;8.51;nan
55685;BME280;41883;49.544;8.646;2023-02-20T00:27:52;101647.06;;;8.52;nan
55685;BME280;41883;49.544;8.646;2023-02-20T00:30:18;101654.25;;;8.50;nan
55685;BME280;41883;49.544;8.646;2023-02-20T00:32:44;101637.09;;;8.44;nan
55685;BME280;41883;49.544;8.646;2023-02-20T00:35:10;101634.97;;;8.37;nan
55685;BME280;41883;49.544;8.646;2023-02-20T00:37:35;101635.63;;;8.27;nan
55685;BME280;41883;49.544;8.646;2023-02-20T00:40:02;101642.16;;;8.22;nan
55685;BME280;41883;49.544;8.646;2023-02-20T00:42:28;101639.47;;;8.11;nan
55685;BME280;41883;49.544;8.646;2023-02-20T00:44:53;101641.91;;;8.01;nan
55685;BME280;41883;49.544;8.646;2023-02-20T00:47:18;101640.84;;;7.91;nan
55685;BME280;41883;49.544;8.646;2023-02-20T00:49:43;101636.88;;;7.85;nan
55685;BME280;41883;49.544;8.646;2023-02-20T00:52:08;101639.06;;;7.78;nan
55685;BME280;41883;49.544;8.646;2023-02-20T00:54:34;101638.47;;;7.75;nan
55685;BME280;41883;49.544;8.646;2023-02-20T00:56:59;101654.03;;;7.78;nan
55685;BME280;41883;49.544;8.646;2023-02-20T00:59:24;101645.09;;;7.80;nan
55685;BME280;41883;49.544;8.646;2023-02-20T01:01:49;101645.09;;;7.80;nan
55685;BME280;41883;49.544;8.646;2023-02-20T01:04:14;101641.50;;;7.81;nan
55685;BME280;41883;49.544;8.646;2023-02-20T01:06:39;101632.75;;;7.81;nan
55685;BME280;41883;49.544;8.646;2023-02-20T01:09:05;101635.38;;;7.81;nan
55685;BME280;41883;49.544;8.646;2023-02-20T01:11:30;101639.38;;;7.74;nan
55685;BME280;41883;49.544;8.646;2023-02-20T01:13:55;101638.13;;;7.66;nan
55685;BME280;41883;49.544;8.646;2023-02-20T01:16:20;101630.13;;;7.55;nan
55685;BME280;41883;49.544;8.646;2023-02-20T01:18:48;101637.94;;;7.44;nan
55685;BME280;41883;49.544;8.646;2023-02-20T01:21:13;101633.28;;;7.35;nan
55685;BME280;41883;49.544;8.646;2023-02-20T01:23:38;101636.53;;;7.26;nan
55685;BME280;41883;49.544;8.646;2023-02-20T01:26:03;101639.56;;;7.19;nan
55685;BME280;41883;49.544;8.646;2023-02-20T01:28:28;101641.44;;;7.17;nan
55685;BME280;41883;49.544;8.646;2023-02-20T01:30:54;101637.34;;;7.13;nan
55685;BME280;41883;49.544;8.646;2023-02-20T01:33:19;101635.94;;;7.08;nan
55685;BME280;41883;49.544;8.646;2023-02-20T01:35:44;101643.53;;;6.99;nan
55685;BME280;41883;49.544;8.646;2023-02-20T01:38:09;101638.94;;;6.89;nan
55685;BME280;41883;49.544;8.646;2023-02-20T01:40:34;101633.38;;;6.80;nan
55685;BME280;41883;49.544;8.646;2023-02-20T01:43:00;101629.34;;;6.75;nan
55685;BME280;41883;49.544;8.646;2023-02-20T01:47:51;101639.50;;;6.67;nan
55685;BME280;41883;49.544;8.646;2023-02-20T01:50:17;101630.16;;;6.63;nan
55685;BME280;41883;49.544;8.646;2023-02-20T01:52:44;101640.09;;;6.57;nan
55685;BME280;41883;49.544;8.646;2023-02-20T01:55:12;101634.31;;;6.52;nan
55685;BME280;41883;49.544;8.646;2023-02-20T01:57:40;101634.72;;;6.46;nan
55685;BME280;41883;49.544;8.646;2023-02-20T02:00:08;101631.50;;;6.41;nan
55685;BME280;41883;49.544;8.646;2023-02-20T02:02:35;101624.88;;;6.35;nan
55685;BME280;41883;49.544;8.646;2023-02-20T02:05:01;101627.03;;;6.29;nan
55685;BME280;41883;49.544;8.646;2023-02-20T02:07:27;101632.56;;;6.24;nan
55685;BME280;41883;49.544;8.646;2023-02-20T02:10:01;101623.31;;;6.19;nan
55685;BME280;41883;49.544;8.646;2023-02-20T02:12:27;101619.19;;;6.14;nan
55685;BME280;41883;49.544;8.646;2023-02-20T02:14:52;101615.09;;;6.10;nan
55685;BME280;41883;49.544;8.646;2023-02-20T02:17:22;101616.28;;;6.05;nan
55685;BME280;41883;49.544;8.646;2023-02-20T02:20:05;101615.81;;;5.98;nan
55685;BME280;41883;49.544;8.646;2023-02-20T02:33:20;101609.22;;;5.77;nan
55685;BME280;41883;49.544;8.646;2023-02-20T02:38:44;101603.44;;;5.71;nan
55685;BME280;41883;49.544;8.646;2023-02-20T02:41:17;101602.88;;;5.66;nan
55685;BME280;41883;49.544;8.646;2023-02-20T02:43:57;101598.56;;;5.65;nan
55685;BME280;41883;49.544;8.646;2023-02-20T02:49:13;101592.47;;;5.65;nan
55685;BME280;41883;49.544;8.646;2023-02-20T02:51:41;101584.69;;;5.63;nan
55685;BME280;41883;49.544;8.646;2023-02-20T02:56:35;101590.22;;;5.59;nan
55685;BME280;41883;49.544;8.646;2023-02-20T02:59:01;101580.56;;;5.59;nan
55685;BME280;41883;49.544;8.646;2023-02-20T03:01:26;101587.69;;;5.57;nan
55685;BME280;41883;49.544;8.646;2023-02-20T03:03:53;101583.47;;;5.54;nan
55685;BME280;41883;49.544;8.646;2023-02-20T03:06:27;101585.25;;;5.54;nan
55685;BME280;41883;49.544;8.646;2023-02-20T03:09:00;101587.03;;;5.53;nan
55685;BME280;41883;49.544;8.646;2023-02-20T03:11:27;101590.59;;;5.52;nan
55685;BME280;41883;49.544;8.646;2023-02-20T03:13:58;101600.25;;;5.52;nan
55685;BME280;41883;49.544;8.646;2023-02-20T03:19:34;101595.38;;;5.46;nan
55685;BME280;41883;49.544;8.646;2023-02-20T03:22:00;101594.50;;;5.45;nan
55685;BME280;41883;49.544;8.646;2023-02-20T03:24:27;101603.13;;;5.47;nan
55685;BME280;41883;49.544;8.646;2023-02-20T03:26:55;101589.00;;;5.50;nan
55685;BME280;41883;49.544;8.646;2023-02-20T03:29:26;101580.97;;;5.53;nan
55685;BME280;41883;49.544;8.646;2023-02-20T03:32:02;101573.81;;;5.55;nan
55685;BME280;41883;49.544;8.646;2023-02-20T03:34:48;101576.91;;;5.62;nan
55685;BME280;41883;49.544;8.646;2023-02-20T03:37:33;101568.00;;;5.64;nan
55685;BME280;41883;49.544;8.646;2023-02-20T03:40:20;101570.47;;;5.67;nan
55685;BME280;41883;49.544;8.646;2023-02-20T03:43:08;101574.97;;;5.65;nan
55685;BME280;41883;49.544;8.646;2023-02-20T03:45:52;101568.00;;;5.64;nan
55685;BME280;41883;49.544;8.646;2023-02-20T03:48:25;101577.47;;;5.67;nan
55685;BME280;41883;49.544;8.646;2023-02-20T03:50:52;101577.31;;;5.70;nan
55685;BME280;41883;49.544;8.646;2023-02-20T03:53:35;101578.88;;;5.72;nan
55685;BME280;41883;49.544;8.646;2023-02-20T03:56:01;101579.72;;;5.73;nan
55685;BME280;41883;49.544;8.646;2023-02-20T03:58:28;101585.91;;;5.72;nan
55685;BME280;41883;49.544;8.646;2023-02-20T04:00:55;101586.94;;;5.69;nan
55685;BME280;41883;49.544;8.646;2023-02-20T04:03:24;101594.72;;;5.71;nan
55685;BME280;41883;49.544;8.646;2023-02-20T04:05:51;101595.56;;;5.71;nan
55685;BME280;41883;49.544;8.646;2023-02-20T04:08:19;101593.78;;;5.72;nan
55685;BME280;41883;49.544;8.646;2023-02-20T04:10:47;101594.72;;;5.71;nan
55685;BME280;41883;49.544;8.646;2023-02-20T04:13:14;101593.03;;;5.70;nan
55685;BME280;41883;49.544;8.646;2023-02-20T04:15:41;101604.56;;;5.67;nan
55685;BME280;41883;49.544;8.646;2023-02-20T04:18:08;101592.19;;;5.69;nan
55685;BME280;41883;49.544;8.646;2023-02-20T04:20:34;101598.19;;;5.71;nan
55685;BME280;41883;49.544;8.646;2023-02-20T04:23:01;101598.84;;;5.75;nan
55685;BME280;41883;49.544;8.646;2023-02-20T04:25:36;101592.75;;;5.74;nan
55685;BME280;41883;49.544;8.646;2023-02-20T04:28:03;101604.00;;;5.77;nan
55685;BME280;41883;49.544;8.646;2023-02-20T04:30:29;101602.94;;;5.79;nan
55685;BME280;41883;49.544;8.646;2023-02-20T04:32:54;101598.66;;;5.78;nan
55685;BME280;41883;49.544;8.646;2023-02-20T04:35:20;101598.66;;;5.78;nan
55685;BME280;41883;49.544;8.646;2023-02-20T04:37:45;101591.72;;;5.77;nan
55685;BME280;41883;49.544;8.646;2023-02-20T04:40:11;101593.50;;;5.77;nan
55685;BME280;41883;49.544;8.646;2023-02-20T04:42:37;101587.53;;;5.74;nan
55685;BME280;41883;49.544;8.646;2023-02-20T04:45:02;101591.06;;;5.73;nan
55685;BME280;41883;49.544;8.646;2023-02-20T04:47:28;101596.41;;;5.72;nan
55685;BME280;41883;49.544;8.646;2023-02-20T04:49:53;101596.88;;;5.64;nan
55685;BME280;41883;49.544;8.646;2023-02-20T04:52:18;101595.28;;;5.62;nan
55685;BME280;41883;49.544;8.646;2023-02-20T04:54:43;101594.34;;;5.63;nan
55685;BME280;41883;49.544;8.646;2023-02-20T04:57:08;101599.88;;;5.58;nan
55685;BME280;41883;49.544;8.646;2023-02-20T04:59:33;101594.72;;;5.57;nan
55685;BME280;41883;49.544;8.646;2023-02-20T05:01:59;101607.34;;;5.50;nan
55685;BME280;41883;49.544;8.646;2023-02-20T05:04:25;101598.91;;;5.45;nan
55685;BME280;41883;49.544;8.646;2023-02-20T05:06:51;101606.22;;;5.40;nan
55685;BME280;41883;49.544;8.646;2023-02-20T05:09:17;101605.75;;;5.33;nan
55685;BME280;41883;49.544;8.646;2023-02-20T05:11:42;101615.75;;;5.26;nan
55685;BME280;41883;49.544;8.646;2023-02-20T05:14:07;101605.53;;;5.22;nan
55685;BME280;41883;49.544;8.646;2023-02-20T05:16:32;101620.34;;;5.23;nan
55685;BME280;41883;49.544;8.646;2023-02-20T05:18:58;101616.00;;;5.22;nan
55685;BME280;41883;49.544;8.646;2023-02-20T05:21:25;101602.81;;;5.23;nan
55685;BME280;41883;49.544;8.646;2023-02-20T05:24:08;101606.22;;;5.25;nan
55685;BME280;41883;49.544;8.646;2023-02-20T05:26:33;101601.34;;;5.33;nan
55685;BME280;41883;49.544;8.646;2023-02-20T05:28:59;101604.72;;;5.36;nan
55685;BME280;41883;49.544;8.646;2023-02-20T05:31:24;101603.88;;;5.35;nan
55685;BME280;41883;49.544;8.646;2023-02-20T05:33:49;101604.72;;;5.36;nan
55685;BME280;41883;49.544;8.646;2023-02-20T05:36:15;101604.63;;;5.37;nan
55685;BME280;41883;49.544;8.646;2023-02-20T05:38:40;101603.69;;;5.38;nan
55685;BME280;41883;49.544;8.646;2023-02-20T05:41:11;101595.75;;;5.40;nan
55685;BME280;41883;49.544;8.646;2023-02-20T05:43:36;101601.75;;;5.42;nan
55685;BME280;41883;49.544;8.646;2023-02-20T05:46:01;101605.00;;;5.45;nan
55685;BME280;41883;49.544;8.646;2023-02-20T05:48:27;101603.13;;;5.47;nan
55685;BME280;41883;49.544;8.646;2023-02-20T05:50:52;101598.09;;;5.44;nan
55685;BME280;41883;49.544;8.646;2023-02-20T05:53:18;101598.84;;;5.46;nan
55685;BME280;41883;49.544;8.646;2023-02-20T05:55:43;101596.56;;;5.40;nan
55685;BME280;41883;49.544;8.646;2023-02-20T05:58:09;101594.72;;;5.42;nan
55685;BME280;41883;49.544;8.646;2023-02-20T06:00:34;101592.00;;;5.44;nan
55685;BME280;41883;49.544;8.646;2023-02-20T06:02:59;101595.38;;;5.46;nan
55685;BME280;41883;49.544;8.646;2023-02-20T06:05:24;101591.06;;;5.45;nan
55685;BME280;41883;49.544;8.646;2023-02-20T06:07:50;101582.53;;;5.41;nan
55685;BME280;41883;49.544;8.646;2023-02-20T06:10:17;101575.72;;;5.39;nan
55685;BME280;41883;49.544;8.646;2023-02-20T06:12:42;101590.41;;;5.41;nan
55685;BME280;41883;49.544;8.646;2023-02-20T06:15:07;101587.94;;;5.38;nan
55685;BME280;41883;49.544;8.646;2023-02-20T06:17:33;101584.41;;;5.39;nan
55685;BME280;41883;49.544;8.646;2023-02-20T06:19:58;101579.16;;;5.39;nan
55685;BME280;41883;49.544;8.646;2023-02-20T06:22:23;101580.84;;;5.40;nan
55685;BME280;41883;49.544;8.646;2023-02-20T06:24:48;101579.16;;;5.39;nan
55685;BME280;41883;49.544;8.646;2023-02-20T06:27:14;101580.19;;;5.37;nan
55685;BME280;41883;49.544;8.646;2023-02-20T06:29:40;101578.50;;;5.36;nan
55685;BME280;41883;49.544;8.646;2023-02-20T06:32:05;101577.66;;;5.35;nan
55685;BME280;41883;49.544;8.646;2023-02-20T06:34:31;101574.38;;;5.31;nan
55685;BME280;41883;49.544;8.646;2023-02-20T06:36:58;101595.25;;;5.33;nan
55685;BME280;41883;49.544;8.646;2023-02-20T06:39:23;101597.13;;;5.31;nan
55685;BME280;41883;49.544;8.646;2023-02-20T06:41:48;101599.00;;;5.29;nan
55685;BME280;41883;49.544;8.646;2023-02-20T06:44:13;101600.88;;;5.27;nan
55685;BME280;41883;49.544;8.646;2023-02-20T06:46:39;101599.09;;;5.27;nan
55685;BME280;41883;49.544;8.646;2023-02-20T06:49:04;101599.84;;;5.29;nan
55685;BME280;41883;49.544;8.646;2023-02-20T06:51:30;101602.22;;;5.34;nan
55685;BME280;41883;49.544;8.646;2023-02-20T06:53:56;101593.13;;;5.40;nan
55685;BME280;41883;49.544;8.646;2023-02-20T06:56:23;101602.50;;;5.44;nan
55685;BME280;41883;49.544;8.646;2023-02-20T06:58:49;101594.91;;;5.53;nan
55685;BME280;41883;49.544;8.646;2023-02-20T07:01:15;101595.47;;;5.59;nan
55685;BME280;41883;49.544;8.646;2023-02-20T07:03:40;101596.22;;;5.61;nan
55685;BME280;41883;49.544;8.646;2023-02-20T07:06:06;101602.31;;;5.61;nan
55685;BME280;41883;49.544;8.646;2023-02-20T07:08:31;101608.31;;;5.63;nan
55685;BME280;41883;49.544;8.646;2023-02-20T07:10:56;101604.75;;;5.64;nan
55685;BME280;41883;49.544;8.646;2023-02-20T07:13:21;101608.19;;;5.65;nan
55685;BME280;41883;49.544;8.646;2023-02-20T07:15:47;101597.25;;;5.72;nan
55685;BME280;41883;49.544;8.646;2023-02-20T07:18:13;101606.72;;;5.75;nan
55685;BME280;41883;49.544;8.646;2023-02-20T07:20:39;101613.28;;;5.82;nan
55685;BME280;41883;49.544;8.646;2023-02-20T07:23:04;101606.81;;;5.88;nan
55685;BME280;41883;49.544;8.646;2023-02-20T07:25:29;101599.47;;;5.93;nan
55685;BME280;41883;49.544;8.646;2023-02-20T07:27:54;101607.31;;;5.94;nan
55685;BME280;41883;49.544;8.646;2023-02-20T07:30:20;101612.91;;;6.03;nan
55685;BME280;41883;49.544;8.646;2023-02-20T07:32:45;101610.00;;;6.07;nan
55685;BME280;41883;49.544;8.646;2023-02-20T07:35:10;101614.97;;;6.12;nan
55685;BME280;41883;49.544;8.646;2023-02-20T07:37:35;101616.25;;;6.19;nan
55685;BME280;41883;49.544;8.646;2023-02-20T07:40:00;101615.78;;;6.27;nan
55685;BME280;41883;49.544;8.646;2023-02-20T07:42:26;101615.84;;;6.40;nan
55685;BME280;41883;49.544;8.646;2023-02-20T07:44:51;101611.97;;;6.45;nan
55685;BME280;41883;49.544;8.646;2023-02-20T07:47:16;101610.47;;;6.55;nan
55685;BME280;41883;49.544;8.646;2023-02-20T07:49:42;101609.13;;;6.63;nan
55685;BME280;41883;49.544;8.646;2023-02-20T07:52:07;101612.72;;;6.74;nan
55685;BME280;41883;49.544;8.646;2023-02-20T07:54:32;101605.50;;;6.91;nan
55685;BME280;41883;49.544;8.646;2023-02-20T07:56:58;101606.50;;;7.02;nan
55685;BME280;41883;49.544;8.646;2023-02-20T07:59:23;101606.94;;;7.09;nan
55685;BME280;41883;49.544;8.646;2023-02-20T08:01:48;101603.03;;;7.15;nan
55685;BME280;41883;49.544;8.646;2023-02-20T08:04:13;101599.34;;;7.17;nan
55685;BME280;41883;49.544;8.646;2023-02-20T08:06:39;101605.91;;;7.25;nan
55685;BME280;41883;49.544;8.646;2023-02-20T08:09:04;101601.78;;;7.33;nan
55685;BME280;41883;49.544;8.646;2023-02-20T08:11:31;101598.03;;;7.37;nan
55685;BME280;41883;49.544;8.646;2023-02-20T08:13:57;101599.59;;;7.40;nan
55685;BME280;41883;49.544;8.646;2023-02-20T08:16:22;101601.81;;;7.46;nan
55685;BME280;41883;49.544;8.646;2023-02-20T08:18:48;101598.75;;;7.52;nan
55685;BME280;41883;49.544;8.646;2023-02-20T08:21:13;101604.44;;;7.59;nan
55685;BME280;41883;49.544;8.646;2023-02-20T08:23:38;101596.75;;;7.69;nan
55685;BME280;41883;49.544;8.646;2023-02-20T08:26:04;101584.84;;;7.76;nan
55685;BME280;41883;49.544;8.646;2023-02-20T08:28:30;101586.50;;;7.90;nan
55685;BME280;41883;49.544;8.646;2023-02-20T08:30:55;101579.63;;;8.00;nan
55685;BME280;41883;49.544;8.646;2023-02-20T08:33:20;101584.94;;;8.24;nan
55685;BME280;41883;49.544;8.646;2023-02-20T08:35:46;101578.41;;;8.29;nan
55685;BME280;41883;49.544;8.646;2023-02-20T08:38:26;101575.72;;;8.42;nan
55685;BME280;41883;49.544;8.646;2023-02-20T08:40:52;101577.19;;;8.46;nan
55685;BME280;41883;49.544;8.646;2023-02-20T08:43:17;101568.72;;;8.54;nan
55685;BME280;41883;49.544;8.646;2023-02-20T08:45:42;101569.47;;;8.56;nan
55685;BME280;41883;49.544;8.646;2023-02-20T08:48:07;101568.97;;;8.62;nan
55685;BME280;41883;49.544;8.646;2023-02-20T08:50:33;101567.06;;;8.64;nan
55685;BME280;41883;49.544;8.646;2023-02-20T08:52:58;101560.00;;;8.65;nan
55685;BME280;41883;49.544;8.646;2023-02-20T08:55:24;101565.06;;;8.68;nan
55685;BME280;41883;49.544;8.646;2023-02-20T08:57:49;101558.97;;;8.79;nan
55685;BME280;41883;49.544;8.646;2023-02-20T09:00:14;101557.31;;;8.89;nan
55685;BME280;41883;49.544;8.646;2023-02-20T09:02:41;101552.56;;;8.94;nan
55685;BME280;41883;49.544;8.646;2023-02-20T09:05:06;101551.84;;;9.03;nan
55685;BME280;41883;49.544;8.646;2023-02-20T09:07:32;101558.72;;;9.17;nan
55685;BME280;41883;49.544;8.646;2023-02-20T09:09:57;101554.19;;;9.30;nan
55685;BME280;41883;49.544;8.646;2023-02-20T09:12:22;101546.88;;;9.45;nan
55685;BME280;41883;49.544;8.646;2023-02-20T09:14:47;101550.00;;;9.50;nan
55685;BME280;41883;49.544;8.646;2023-02-20T09:17:13;101547.13;;;9.65;nan
55685;BME280;41883;49.544;8.646;2023-02-20T09:19:38;101541.94;;;9.74;nan
55685;BME280;41883;49.544;8.646;2023-02-20T09:22:03;101549.03;;;9.85;nan
55685;BME280;41883;49.544;8.646;2023-02-20T09:24:28;101549.13;;;9.95;nan
55685;BME280;41883;49.544;8.646;2023-02-20T09:26:58;101547.44;;;10.05;nan
55685;BME280;41883;49.544;8.646;2023-02-20T09:29:23;101546.13;;;10.11;nan
55685;BME280;41883;49.544;8.646;2023-02-20T09:31:48;101540.69;;;10.12;nan
55685;BME280;41883;49.544;8.646;2023-02-20T09:34:13;101541.78;;;10.10;nan
55685;BME280;41883;49.544;8.646;2023-02-20T09:36:38;101538.19;;;10.11;nan
55685;BME280;41883;49.544;8.646;2023-02-20T09:39:04;101530.47;;;10.08;nan
55685;BME280;41883;49.544;8.646;2023-02-20T09:41:49;101530.28;;;9.99;nan
55685;BME280;41883;49.544;8.646;2023-02-20T09:46:46;101526.47;;;9.81;nan
55685;BME280;41883;49.544;8.646;2023-02-20T09:49:14;101530.06;;;9.80;nan
55685;BME280;41883;49.544;8.646;2023-02-20T09:51:41;101530.28;;;9.77;nan
55685;BME280;41883;49.544;8.646;2023-02-20T09:56:43;101522.88;;;9.82;nan
55685;BME280;41883;49.544;8.646;2023-02-20T09:59:24;101521.63;;;9.86;nan
55685;BME280;41883;49.544;8.646;2023-02-20T10:01:52;101514.06;;;9.93;nan
55685;BME280;41883;49.544;8.646;2023-02-20T10:04:21;101516.09;;;10.00;nan
55685;BME280;41883;49.544;8.646;2023-02-20T10:06:49;101514.41;;;10.11;nan
55685;BME280;41883;49.544;8.646;2023-02-20T10:09:15;101507.41;;;10.21;nan
55685;BME280;41883;49.544;8.646;2023-02-20T10:12:04;101496.56;;;10.24;nan
55685;BME280;41883;49.544;8.646;2023-02-20T10:29:52;101504.16;;;10.61;nan
55685;BME280;41883;49.544;8.646;2023-02-20T10:32:20;101477.81;;;10.59;nan
55685;BME280;41883;49.544;8.646;2023-02-20T10:35:07;101488.13;;;10.62;nan
55685;BME280;41883;49.544;8.646;2023-02-20T10:37:35;101488.19;;;10.72;nan
55685;BME280;41883;49.544;8.646;2023-02-20T10:40:04;101481.56;;;10.78;nan
55685;BME280;41883;49.544;8.646;2023-02-20T10:45:21;101490.75;;;11.25;nan
55685;BME280;41883;49.544;8.646;2023-02-20T10:47:53;101483.84;;;12.72;nan
55685;BME280;41883;49.544;8.646;2023-02-20T10:50:24;101487.78;;;14.26;nan
55685;BME280;41883;49.544;8.646;2023-02-20T10:55:45;101471.41;;;17.64;nan
55685;BME280;41883;49.544;8.646;2023-02-20T11:00:52;101472.66;;;19.21;nan
55685;BME280;41883;49.544;8.646;2023-02-20T11:03:27;101477.31;;;19.79;nan
55685;BME280;41883;49.544;8.646;2023-02-20T11:05:54;101461.47;;;20.27;nan
55685;BME280;41883;49.544;8.646;2023-02-20T11:08:20;101456.31;;;20.75;nan
55685;BME280;41883;49.544;8.646;2023-02-20T11:10:46;101452.06;;;21.35;nan
55685;BME280;41883;49.544;8.646;2023-02-20T11:13:13;101454.56;;;21.85;nan
55685;BME280;41883;49.544;8.646;2023-02-20T11:15:40;101454.44;;;22.40;nan
55685;BME280;41883;49.544;8.646;2023-02-20T11:18:10;101448.44;;;22.51;nan
55685;BME280;41883;49.544;8.646;2023-02-20T11:20:40;101457.13;;;22.66;nan
55685;BME280;41883;49.544;8.646;2023-02-20T11:23:06;101453.00;;;22.51;nan
55685;BME280;41883;49.544;8.646;2023-02-20T11:30:42;101442.34;;;23.54;nan
55685;BME280;41883;49.544;8.646;2023-02-20T11:35:38;101434.28;;;23.47;nan
55685;BME280;41883;49.544;8.646;2023-02-20T11:45:42;101416.16;;;19.96;nan
55685;BME280;41883;49.544;8.646;2023-02-20T11:48:11;101410.69;;;19.67;nan
55685;BME280;41883;49.544;8.646;2023-02-20T11:50:50;101408.88;;;19.17;nan
55685;BME280;41883;49.544;8.646;2023-02-20T11:53:17;101409.00;;;18.71;nan
55685;BME280;41883;49.544;8.646;2023-02-20T11:55:42;101405.63;;;18.24;nan
55685;BME280;41883;49.544;8.646;2023-02-20T11:58:09;101399.13;;;17.72;nan
55685;BME280;41883;49.544;8.646;2023-02-20T12:00:45;101392.75;;;17.11;nan
55685;BME280;41883;49.544;8.646;2023-02-20T12:03:11;101378.38;;;16.64;nan
55685;BME280;41883;49.544;8.646;2023-02-20T12:05:44;101388.41;;;16.46;nan
55685;BME280;41883;49.544;8.646;2023-02-20T12:08:33;101377.44;;;16.08;nan
55685;BME280;41883;49.544;8.646;2023-02-20T12:10:58;101381.25;;;15.89;nan
55685;BME280;41883;49.544;8.646;2023-02-20T12:13:25;101367.88;;;15.64;nan
55685;BME280;41883;49.544;8.646;2023-02-20T12:15:54;101372.00;;;15.42;nan
55685;BME280;41883;49.544;8.646;2023-02-20T12:18:43;101355.03;;;15.01;nan
55685;BME280;41883;49.544;8.646;2023-02-20T12:24:01;101346.41;;;14.73;nan
55685;BME280;41883;49.544;8.646;2023-02-20T12:34:19;101332.53;;;14.61;nan
55685;BME280;41883;49.544;8.646;2023-02-20T12:36:49;101322.16;;;14.50;nan
55685;BME280;41883;49.544;8.646;2023-02-20T12:39:37;101327.41;;;14.41;nan
55685;BME280;41883;49.544;8.646;2023-02-20T12:47:28;101301.91;;;14.31;nan
55685;BME280;41883;49.544;8.646;2023-02-20T13:02:45;101276.91;;;14.50;nan
55685;BME280;41883;49.544;8.646;2023-02-20T13:05:13;101273.34;;;14.59;nan
55685;BME280;41883;49.544;8.646;2023-02-20T13:10:07;101272.31;;;14.60;nan
55685;BME280;41883;49.544;8.646;2023-02-20T13:12:34;101259.25;;;14.49;nan
55685;BME280;41883;49.544;8.646;2023-02-20T13:15:02;101262.03;;;14.65;nan
55685;BME280;41883;49.544;8.646;2023-02-20T13:17:43;101258.19;;;14.59;nan
55685;BME280;41883;49.544;8.646;2023-02-20T13:20:16;101254.38;;;14.62;nan
55685;BME280;41883;49.544;8.646;2023-02-20T13:22:42;101254.38;;;14.62;nan
55685;BME280;41883;49.544;8.646;2023-02-20T13:28:06;101254.84;;;14.57;nan
55685;BME280;41883;49.544;8.646;2023-02-20T13:30:38;101245.84;;;14.58;nan
55685;BME280;41883;49.544;8.646;2023-02-20T13:33:24;101249.28;;;14.51;nan
55685;BME280;41883;49.544;8.646;2023-02-20T13:35:52;101245.66;;;14.52;nan
55685;BME280;41883;49.544;8.646;2023-02-20T13:38:19;101241.63;;;14.48;nan
55685;BME280;41883;49.544;8.646;2023-02-20T13:46:07;101234.81;;;14.45;nan
55685;BME280;41883;49.544;8.646;2023-02-20T13:48:44;101232.84;;;14.47;nan
55685;BME280;41883;49.544;8.646;2023-02-20T13:54:24;101221.03;;;14.50;nan
55685;BME280;41883;49.544;8.646;2023-02-20T13:56:40;101222.19;;;14.47;nan
55685;BME280;41883;49.544;8.646;2023-02-20T13:59:10;101207.03;;;14.48;nan
55685;BME280;41883;49.544;8.646;2023-02-20T14:01:52;101206.22;;;14.47;nan
55685;BME280;41883;49.544;8.646;2023-02-20T14:04:18;101206.03;;;14.49;nan
55685;BME280;41883;49.544;8.646;2023-02-20T14:06:50;101202.06;;;14.53;nan
55685;BME280;41883;49.544;8.646;2023-02-20T14:09:18;101196.97;;;14.59;nan
55685;BME280;41883;49.544;8.646;2023-02-20T14:11:45;101187.69;;;14.63;nan
55685;BME280;41883;49.544;8.646;2023-02-20T14:14:15;101189.69;;;14.70;nan
55685;BME280;41883;49.544;8.646;2023-02-20T14:16:45;101184.19;;;14.71;nan
55685;BME280;41883;49.544;8.646;2023-02-20T14:19:15;101173.38;;;14.73;nan
55685;BME280;41883;49.544;8.646;2023-02-20T14:21:42;101166.38;;;14.72;nan
55685;BME280;41883;49.544;8.646;2023-02-20T14:24:18;101158.25;;;14.73;nan
55685;BME280;41883;49.544;8.646;2023-02-20T14:26:44;101149.75;;;14.70;nan
55685;BME280;41883;49.544;8.646;2023-02-20T14:29:20;101141.75;;;14.70;nan
55685;BME280;41883;49.544;8.646;2023-02-20T14:31:46;101139.63;;;14.73;nan
55685;BME280;41883;49.544;8.646;2023-02-20T14:34:15;101147.91;;;14.70;nan
55685;BME280;41883;49.544;8.646;2023-02-20T14:41:54;101138.75;;;14.56;nan
55685;BME280;41883;49.544;8.646;2023-02-20T14:44:19;101141.41;;;14.56;nan
55685;BME280;41883;49.544;8.646;2023-02-20T14:46:44;101140.84;;;14.53;nan
55685;BME280;41883;49.544;8.646;2023-02-20T14:49:12;101135.03;;;14.49;nan
55685;BME280;41883;49.544;8.646;2023-02-20T14:51:37;101141.50;;;14.47;nan
55685;BME280;41883;49.544;8.646;2023-02-20T14:54:17;101134.19;;;14.49;nan
55685;BME280;41883;49.544;8.646;2023-02-20T14:56:43;101130.03;;;14.46;nan
55685;BME280;41883;49.544;8.646;2023-02-20T14:59:29;101127.53;;;14.44;nan
55685;BME280;41883;49.544;8.646;2023-02-20T15:02:01;101121.84;;;14.39;nan
55685;BME280;41883;49.544;8.646;2023-02-20T15:04:27;101127.66;;;14.35;nan
55685;BME280;41883;49.544;8.646;2023-02-20T15:06:53;101123.00;;;14.29;nan
55685;BME280;41883;49.544;8.646;2023-02-20T15:09:19;101114.50;;;14.25;nan
55685;BME280;41883;49.544;8.646;2023-02-20T15:11:51;101114.81;;;14.22;nan
55685;BME280;41883;49.544;8.646;2023-02-20T15:14:21;101104.34;;;14.20;nan
55685;BME280;41883;49.544;8.646;2023-02-20T15:16:47;101101.03;;;14.18;nan